Time,TemperatureF,DewpointF,PressureIn,WindDirection,WindDirectionDegrees,WindSpeedMPH,WindSpeedGustMPH,Humidity,HourlyPrecipIn,Conditions,Clouds,dailyrainin,SoftwareType,DateUTC
2013-03-05 00:00:00,25.6,24.4,29.91,ESE,108,1.0,2.0,95,0.00,,,0.00,vanprod-2.3,2013-03-05 06:00:00,
2013-03-05 00:05:00,25.5,24.3,29.91,ESE,109,1.0,2.0,95,0.00,,,0.00,vanprod-2.3,2013-03-05 06:05:00,
2013-03-05 00:10:00,25.5,24.3,29.91,ESE,109,0.0,1.0,95,0.00,,,0.00,vanprod-2.3,2013-03-05 06:10:00,
2013-03-05 00:15:00,25.5,24.3,29.91,ESE,109,0.0,0.0,95,0.00,,,0.00,vanprod-2.3,2013-03-05 06:15:00,
2013-03-05 00:20:00,25.5,24.3,29.91,ESE,109,1.0,2.0,95,0.00,,,0.00,vanprod-2.3,2013-03-05 06:20:00,
2013-03-05 00:25:00,25.5,24.3,29.91,ESE,109,0.0,1.0,95,0.00,,,0.00,vanprod-2.3,2013-03-05 06:25:00,
2013-03-05 00:30:00,25.5,24.3,29.91,ESE,109,0.0,0.0,95,0.00,,,0.00,vanprod-2.3,2013-03-05 06:30:00,
2013-03-05 00:35:00,25.5,24.3,29.92,ESE,109,1.0,2.0,95,0.00,,,0.00,vanprod-2.3,2013-03-05 06:35:00,
2013-03-05 00:40:00,25.5,24.3,29.91,ESE,109,1.0,3.0,95,0.00,,,0.00,vanprod-2.3,2013-03-05 06:40:00,
2013-03-05 00:45:00,25.5,24.3,29.92,ESE,108,0.0,2.0,95,0.00,,,0.00,vanprod-2.3,2013-03-05 06:45:00,
2013-03-05 00:50:00,25.5,24.3,29.92,ESE,109,0.0,0.0,95,0.00,,,0.00,vanprod-2.3,2013-03-05 06:50:00,
2013-03-05 00:55:00,25.5,24.3,29.91,ESE,108,1.0,1.0,95,0.00,,,0.00,vanprod-2.3,2013-03-05 06:55:00,
2013-03-05 01:00:00,25.5,24.3,29.91,ESE,108,1.0,2.0,95,0.00,,,0.00,vanprod-2.3,2013-03-05 07:00:00,
2013-03-05 01:05:00,25.3,24.1,29.91,ESE,108,1.0,2.0,95,0.00,,,0.00,vanprod-2.3,2013-03-05 07:05:00,
2013-03-05 01:10:00,25.2,24.0,29.92,ESE,109,1.0,1.0,95,0.00,,,0.00,vanprod-2.3,2013-03-05 07:10:00,
2013-03-05 01:15:00,25.2,24.0,29.92,ESE,109,1.0,2.0,95,0.00,,,0.00,vanprod-2.3,2013-03-05 07:15:00,
2013-03-05 01:20:00,25.2,24.0,29.91,ESE,108,2.0,2.0,95,0.00,,,0.00,vanprod-2.3,2013-03-05 07:20:00,
2013-03-05 01:25:00,25.1,23.9,29.91,ESE,108,2.0,2.0,95,0.00,,,0.00,vanprod-2.3,2013-03-05 07:25:00,
2013-03-05 01:30:00,25.1,23.9,29.91,ESE,108,1.0,3.0,95,0.00,,,0.00,vanprod-2.3,2013-03-05 07:30:00,
2013-03-05 01:35:00,25.1,23.9,29.91,ESE,109,2.0,3.0,95,0.00,,,0.00,vanprod-2.3,2013-03-05 07:35:00,
2013-03-05 01:40:00,24.9,23.7,29.91,ESE,109,1.0,3.0,95,0.00,,,0.00,vanprod-2.3,2013-03-05 07:40:00,
2013-03-05 01:45:00,24.9,23.7,29.91,ESE,108,0.0,0.0,95,0.00,,,0.00,vanprod-2.3,2013-03-05 07:45:00,
2013-03-05 01:50:00,24.9,23.7,29.92,ESE,108,1.0,2.0,95,0.00,,,0.00,vanprod-2.3,2013-03-05 07:50:00,
2013-03-05 01:55:00,24.8,23.6,29.92,ESE,108,1.0,2.0,95,0.00,,,0.00,vanprod-2.3,2013-03-05 07:55:00,
2013-03-05 02:00:00,24.8,23.6,29.92,ESE,109,2.0,3.0,95,0.00,,,0.00,vanprod-2.3,2013-03-05 08:00:00,
2013-03-05 02:05:00,24.8,23.6,29.92,ESE,109,0.0,2.0,95,0.00,,,0.00,vanprod-2.3,2013-03-05 08:05:00,
2013-03-05 02:10:00,24.8,23.6,29.92,ESE,108,1.0,1.0,95,0.00,,,0.00,vanprod-2.3,2013-03-05 08:10:00,
2013-03-05 02:15:00,24.8,23.6,29.92,ESE,108,0.0,1.0,95,0.00,,,0.00,vanprod-2.3,2013-03-05 08:15:00,
2013-03-05 02:20:00,24.8,23.6,29.92,ESE,108,0.0,0.0,95,0.00,,,0.00,vanprod-2.3,2013-03-05 08:20:00,
2013-03-05 02:25:00,24.8,23.6,29.92,ESE,109,0.0,0.0,95,0.00,,,0.00,vanprod-2.3,2013-03-05 08:25:00,
2013-03-05 02:30:00,24.8,23.6,29.92,ESE,108,0.0,0.0,95,0.00,,,0.00,vanprod-2.3,2013-03-05 08:30:00,
2013-03-05 02:35:00,24.8,23.6,29.92,ESE,108,0.0,0.0,95,0.00,,,0.00,vanprod-2.3,2013-03-05 08:35:00,
2013-03-05 02:40:00,24.8,23.6,29.92,ESE,108,0.0,0.0,95,0.00,,,0.00,vanprod-2.3,2013-03-05 08:40:00,
2013-03-05 02:45:00,24.9,23.7,29.92,ESE,108,0.0,0.0,95,0.00,,,0.00,vanprod-2.3,2013-03-05 08:45:00,
2013-03-05 02:50:00,24.9,23.7,29.92,ESE,108,0.0,0.0,95,0.00,,,0.00,vanprod-2.3,2013-03-05 08:50:00,
2013-03-05 02:55:00,25.1,23.9,29.92,ESE,108,0.0,0.0,95,0.00,,,0.00,vanprod-2.3,2013-03-05 08:55:00,
2013-03-05 03:00:00,25.1,23.9,29.92,ESE,109,0.0,0.0,95,0.00,,,0.00,vanprod-2.3,2013-03-05 09:00:00,
2013-03-05 03:05:00,25.2,24.0,29.92,ESE,108,0.0,0.0,95,0.00,,,0.00,vanprod-2.3,2013-03-05 09:05:00,
2013-03-05 03:10:00,25.2,23.7,29.92,ESE,109,0.0,2.0,94,0.00,,,0.00,vanprod-2.3,2013-03-05 09:10:00,
2013-03-05 03:15:00,25.2,23.7,29.92,ESE,108,0.0,0.0,94,0.01,,,0.01,vanprod-2.3,2013-03-05 09:15:00,
2013-03-05 03:20:00,25.3,23.8,29.92,ESE,109,0.0,0.0,94,0.01,,,0.01,vanprod-2.3,2013-03-05 09:20:00,
2013-03-05 03:25:00,25.3,23.8,29.92,ESE,108,0.0,0.0,94,0.01,,,0.01,vanprod-2.3,2013-03-05 09:25:00,
2013-03-05 03:30:00,25.3,23.8,29.92,ESE,108,1.0,2.0,94,0.02,,,0.02,vanprod-2.3,2013-03-05 09:30:00,
2013-03-05 03:35:00,25.3,23.8,29.92,ESE,108,0.0,1.0,94,0.02,,,0.02,vanprod-2.3,2013-03-05 09:35:00,
2013-03-05 03:40:00,25.5,24.0,29.92,ESE,109,0.0,0.0,94,0.02,,,0.02,vanprod-2.3,2013-03-05 09:40:00,
2013-03-05 03:45:00,25.5,24.0,29.92,ESE,109,0.0,0.0,94,0.02,,,0.02,vanprod-2.3,2013-03-05 09:45:00,
2013-03-05 03:50:00,25.5,24.0,29.92,ESE,109,0.0,1.0,94,0.03,,,0.03,vanprod-2.3,2013-03-05 09:50:00,
2013-03-05 03:55:00,25.5,24.0,29.92,ESE,108,0.0,0.0,94,0.03,,,0.03,vanprod-2.3,2013-03-05 09:55:00,
2013-03-05 04:00:00,25.5,24.0,29.92,ESE,108,0.0,0.0,94,0.03,,,0.03,vanprod-2.3,2013-03-05 10:00:00,
2013-03-05 04:05:00,25.6,24.1,29.92,ESE,108,0.0,0.0,94,0.03,,,0.03,vanprod-2.3,2013-03-05 10:05:00,
2013-03-05 04:10:00,25.5,24.0,29.92,ESE,109,0.0,0.0,94,0.03,,,0.03,vanprod-2.3,2013-03-05 10:10:00,
2013-03-05 04:15:00,25.5,24.0,29.92,ESE,108,0.0,0.0,94,0.02,,,0.03,vanprod-2.3,2013-03-05 10:15:00,
2013-03-05 04:20:00,25.6,24.1,29.93,ESE,108,0.0,1.0,94,0.03,,,0.04,vanprod-2.3,2013-03-05 10:20:00,
2013-03-05 04:25:00,25.6,24.1,29.93,ESE,109,1.0,1.0,94,0.03,,,0.04,vanprod-2.3,2013-03-05 10:25:00,
2013-03-05 04:30:00,25.6,24.1,29.93,ESE,108,0.0,0.0,94,0.02,,,0.04,vanprod-2.3,2013-03-05 10:30:00,
2013-03-05 04:35:00,25.5,24.0,29.93,ESE,109,0.0,1.0,94,0.02,,,0.04,vanprod-2.3,2013-03-05 10:35:00,
2013-03-05 04:40:00,25.5,24.0,29.93,ESE,109,1.0,2.0,94,0.02,,,0.04,vanprod-2.3,2013-03-05 10:40:00,
2013-03-05 04:45:00,25.6,24.1,29.93,ESE,108,0.0,0.0,94,0.02,,,0.04,vanprod-2.3,2013-03-05 10:45:00,
2013-03-05 04:50:00,25.6,24.1,29.93,ESE,107,0.0,0.0,94,0.01,,,0.04,vanprod-2.3,2013-03-05 10:50:00,
2013-03-05 04:55:00,25.6,24.1,29.94,ESE,112,1.0,1.0,94,0.01,,,0.04,vanprod-2.3,2013-03-05 10:55:00,
2013-03-05 05:00:00,25.6,24.1,29.94,ESE,112,1.0,0.0,94,0.02,,,0.05,vanprod-2.3,2013-03-05 11:00:00,
2013-03-05 05:05:00,25.6,24.1,29.94,ESE,112,0.0,0.0,94,0.02,,,0.05,vanprod-2.3,2013-03-05 11:05:00,
2013-03-05 05:10:00,25.6,24.1,29.94,ESE,111,0.0,2.0,94,0.02,,,0.05,vanprod-2.3,2013-03-05 11:10:00,
2013-03-05 05:15:00,25.6,24.1,29.94,ESE,110,0.0,1.0,94,0.02,,,0.05,vanprod-2.3,2013-03-05 11:15:00,
2013-03-05 05:20:00,25.6,24.1,29.95,ESE,121,1.0,2.0,94,0.01,,,0.05,vanprod-2.3,2013-03-05 11:20:00,
2013-03-05 05:25:00,25.5,24.0,29.95,ESE,121,1.0,3.0,94,0.01,,,0.05,vanprod-2.3,2013-03-05 11:25:00,
2013-03-05 05:30:00,25.5,24.0,29.95,ESE,117,2.0,3.0,94,0.01,,,0.05,vanprod-2.3,2013-03-05 11:30:00,
2013-03-05 05:35:00,25.5,24.0,29.95,ESE,114,0.0,2.0,94,0.01,,,0.05,vanprod-2.3,2013-03-05 11:35:00,
2013-03-05 05:40:00,25.5,24.0,29.95,ESE,114,1.0,3.0,94,0.01,,,0.05,vanprod-2.3,2013-03-05 11:40:00,
2013-03-05 05:45:00,25.5,24.0,29.95,ESE,104,1.0,1.0,94,0.01,,,0.05,vanprod-2.3,2013-03-05 11:45:00,
2013-03-05 05:50:00,25.5,24.0,29.96,ESE,104,2.0,3.0,94,0.01,,,0.05,vanprod-2.3,2013-03-05 11:50:00,
2013-03-05 05:55:00,25.5,24.0,29.96,East,88,3.0,3.0,94,0.02,,,0.06,vanprod-2.3,2013-03-05 11:55:00,
2013-03-05 06:00:00,25.3,23.8,29.96,East,85,1.0,3.0,94,0.01,,,0.06,vanprod-2.3,2013-03-05 12:00:00,
2013-03-05 06:05:00,25.2,23.7,29.97,East,85,1.0,5.0,94,0.01,,,0.06,vanprod-2.3,2013-03-05 12:05:00,
2013-03-05 06:10:00,24.9,23.4,29.97,East,85,2.0,2.0,94,0.01,,,0.06,vanprod-2.3,2013-03-05 12:10:00,
2013-03-05 06:15:00,24.8,23.3,29.97,East,85,1.0,3.0,94,0.01,,,0.06,vanprod-2.3,2013-03-05 12:15:00,
2013-03-05 06:20:00,24.5,22.8,29.97,East,85,2.0,4.0,93,0.01,,,0.06,vanprod-2.3,2013-03-05 12:20:00,
2013-03-05 06:25:00,24.2,22.5,29.97,East,85,1.0,1.0,93,0.01,,,0.06,vanprod-2.3,2013-03-05 12:25:00,
2013-03-05 06:30:00,24.0,22.3,29.98,East,85,2.0,2.0,93,0.01,,,0.06,vanprod-2.3,2013-03-05 12:30:00,
2013-03-05 06:35:00,23.9,22.2,29.98,East,85,2.0,5.0,93,0.01,,,0.06,vanprod-2.3,2013-03-05 12:35:00,
2013-03-05 06:40:00,23.6,21.9,29.98,East,85,2.0,3.0,93,0.01,,,0.06,vanprod-2.3,2013-03-05 12:40:00,
2013-03-05 06:45:00,23.4,21.7,29.99,East,83,1.0,2.0,93,0.01,,,0.06,vanprod-2.3,2013-03-05 12:45:00,
2013-03-05 06:50:00,23.4,21.7,29.99,East,83,2.0,2.0,93,0.01,,,0.06,vanprod-2.3,2013-03-05 12:50:00,
2013-03-05 06:55:00,23.3,21.6,29.99,East,79,3.0,3.0,93,0.00,,,0.06,vanprod-2.3,2013-03-05 12:55:00,
2013-03-05 07:00:00,23.1,21.4,29.99,NE,51,4.0,4.0,93,0.00,,,0.06,vanprod-2.3,2013-03-05 13:00:00,
2013-03-05 07:05:00,23.1,21.4,30.00,NE,49,3.0,8.0,93,0.00,,,0.06,vanprod-2.3,2013-03-05 13:05:00,
2013-03-05 07:10:00,23.1,21.4,30.00,NE,48,2.0,7.0,93,0.00,,,0.06,vanprod-2.3,2013-03-05 13:10:00,
2013-03-05 07:15:00,23.0,21.3,30.00,NNE,31,3.0,6.0,93,0.00,,,0.06,vanprod-2.3,2013-03-05 13:15:00,
2013-03-05 07:20:00,22.8,21.1,30.00,NNE,31,2.0,2.0,93,0.00,,,0.06,vanprod-2.3,2013-03-05 13:20:00,
2013-03-05 07:25:00,22.8,20.8,30.01,NNE,31,2.0,5.0,92,0.00,,,0.06,vanprod-2.3,2013-03-05 13:25:00,
2013-03-05 07:30:00,22.8,20.8,30.01,NNE,31,2.0,3.0,92,0.00,,,0.06,vanprod-2.3,2013-03-05 13:30:00,
2013-03-05 07:35:00,22.8,20.8,30.01,NNE,31,2.0,3.0,92,0.00,,,0.06,vanprod-2.3,2013-03-05 13:35:00,
2013-03-05 07:40:00,22.7,20.7,30.02,NNE,31,2.0,6.0,92,0.00,,,0.06,vanprod-2.3,2013-03-05 13:40:00,
2013-03-05 07:45:00,22.7,20.7,30.02,NNE,31,3.0,6.0,92,0.00,,,0.06,vanprod-2.3,2013-03-05 13:45:00,
2013-03-05 07:50:00,22.7,20.7,30.02,NNE,31,2.0,6.0,92,0.00,,,0.06,vanprod-2.3,2013-03-05 13:50:00,
2013-03-05 07:55:00,22.7,20.7,30.02,NNE,30,4.0,6.0,92,0.00,,,0.06,vanprod-2.3,2013-03-05 13:55:00,
2013-03-05 08:00:00,22.7,20.7,30.02,NNE,30,3.0,3.0,92,0.00,,,0.06,vanprod-2.3,2013-03-05 14:00:00,
2013-03-05 08:05:00,22.7,20.7,30.03,NNE,30,2.0,3.0,92,0.00,,,0.06,vanprod-2.3,2013-03-05 14:05:00,
2013-03-05 08:10:00,22.7,20.7,30.03,NNE,30,3.0,7.0,92,0.00,,,0.06,vanprod-2.3,2013-03-05 14:10:00,
2013-03-05 08:15:00,22.7,20.7,30.03,NNE,30,3.0,7.0,92,0.00,,,0.06,vanprod-2.3,2013-03-05 14:15:00,
2013-03-05 08:20:00,22.8,20.8,30.03,NNE,30,2.0,3.0,92,0.00,,,0.06,vanprod-2.3,2013-03-05 14:20:00,
2013-03-05 08:25:00,22.8,20.8,30.04,NNE,30,2.0,4.0,92,0.00,,,0.06,vanprod-2.3,2013-03-05 14:25:00,
2013-03-05 08:30:00,23.0,21.0,30.04,NNE,14,2.0,6.0,92,0.00,,,0.06,vanprod-2.3,2013-03-05 14:30:00,
2013-03-05 08:35:00,23.0,21.0,30.05,North,11,4.0,10.0,92,0.00,,,0.06,vanprod-2.3,2013-03-05 14:35:00,
2013-03-05 08:40:00,23.0,20.8,30.05,North,7,2.0,4.0,91,0.00,,,0.06,vanprod-2.3,2013-03-05 14:40:00,
2013-03-05 08:45:00,23.1,20.9,30.05,North,4,3.0,6.0,91,0.00,,,0.06,vanprod-2.3,2013-03-05 14:45:00,
2013-03-05 08:50:00,23.1,20.9,30.05,North,4,4.0,6.0,91,0.00,,,0.06,vanprod-2.3,2013-03-05 14:50:00,
2013-03-05 08:55:00,23.1,20.9,30.06,North,0,4.0,5.0,91,0.00,,,0.06,vanprod-2.3,2013-03-05 14:55:00,
2013-03-05 09:00:00,23.1,20.9,30.06,North,360,2.0,5.0,91,0.00,,,0.06,vanprod-2.3,2013-03-05 15:00:00,
2013-03-05 09:05:00,23.4,21.2,30.06,North,360,2.0,2.0,91,0.00,,,0.06,vanprod-2.3,2013-03-05 15:05:00,
2013-03-05 09:10:00,23.4,21.2,30.07,North,360,3.0,6.0,91,0.00,,,0.06,vanprod-2.3,2013-03-05 15:10:00,
2013-03-05 09:15:00,23.4,21.2,30.07,North,356,4.0,8.0,91,0.00,,,0.06,vanprod-2.3,2013-03-05 15:15:00,
2013-03-05 09:20:00,23.4,21.2,30.07,North,356,5.0,8.0,91,0.00,,,0.06,vanprod-2.3,2013-03-05 15:20:00,
2013-03-05 09:25:00,23.6,21.4,30.07,North,354,3.0,3.0,91,0.00,,,0.06,vanprod-2.3,2013-03-05 15:25:00,
2013-03-05 09:30:00,23.9,21.7,30.08,North,354,1.0,6.0,91,0.00,,,0.06,vanprod-2.3,2013-03-05 15:30:00,
2013-03-05 09:35:00,24.0,21.8,30.08,North,356,1.0,1.0,91,0.00,,,0.06,vanprod-2.3,2013-03-05 15:35:00,
2013-03-05 09:40:00,24.2,22.0,30.08,North,356,3.0,3.0,91,0.00,,,0.06,vanprod-2.3,2013-03-05 15:40:00,
2013-03-05 09:45:00,24.3,21.8,30.08,North,360,7.0,9.0,90,0.00,,,0.06,vanprod-2.3,2013-03-05 15:45:00,
2013-03-05 09:50:00,24.3,21.8,30.08,North,357,7.0,8.0,90,0.00,,,0.06,vanprod-2.3,2013-03-05 15:50:00,
2013-03-05 09:55:00,24.6,22.1,30.08,North,357,3.0,4.0,90,0.00,,,0.06,vanprod-2.3,2013-03-05 15:55:00,
2013-03-05 10:00:00,24.6,22.1,30.08,North,357,5.0,9.0,90,0.00,,,0.06,vanprod-2.3,2013-03-05 16:00:00,
2013-03-05 10:05:00,24.9,22.4,30.09,North,353,3.0,3.0,90,0.00,,,0.06,vanprod-2.3,2013-03-05 16:05:00,
2013-03-05 10:10:00,25.1,22.6,30.09,North,356,4.0,6.0,90,0.00,,,0.06,vanprod-2.3,2013-03-05 16:10:00,
2013-03-05 10:15:00,25.1,22.3,30.09,North,351,6.0,9.0,89,0.00,,,0.06,vanprod-2.3,2013-03-05 16:15:00,
2013-03-05 10:20:00,24.8,22.0,30.09,North,359,7.0,7.0,89,0.00,,,0.06,vanprod-2.3,2013-03-05 16:20:00,
2013-03-05 10:25:00,24.8,22.0,30.09,North,354,10.0,10.0,89,0.00,,,0.06,vanprod-2.3,2013-03-05 16:25:00,
2013-03-05 10:30:00,24.8,22.0,30.09,North,359,5.0,8.0,89,0.00,,,0.06,vanprod-2.3,2013-03-05 16:30:00,
2013-03-05 10:35:00,24.9,22.1,30.10,NNW,347,5.0,8.0,89,0.00,,,0.06,vanprod-2.3,2013-03-05 16:35:00,
2013-03-05 10:40:00,25.1,22.3,30.10,North,350,7.0,10.0,89,0.00,,,0.06,vanprod-2.3,2013-03-05 16:40:00,
2013-03-05 10:45:00,25.1,22.3,30.11,North,1,6.0,8.0,89,0.00,,,0.06,vanprod-2.3,2013-03-05 16:45:00,
2013-03-05 10:50:00,25.2,22.4,30.11,North,351,5.0,12.0,89,0.00,,,0.06,vanprod-2.3,2013-03-05 16:50:00,
2013-03-05 10:55:00,25.3,22.5,30.11,NNW,328,5.0,7.0,89,0.00,,,0.06,vanprod-2.3,2013-03-05 16:55:00,
2013-03-05 11:00:00,25.3,22.5,30.11,North,352,5.0,10.0,89,0.00,,,0.06,vanprod-2.3,2013-03-05 17:00:00,
2013-03-05 11:05:00,25.6,22.8,30.11,NW,307,3.0,6.0,89,0.00,,,0.06,vanprod-2.3,2013-03-05 17:05:00,
2013-03-05 11:10:00,25.9,23.1,30.11,NNW,346,4.0,6.0,89,0.00,,,0.06,vanprod-2.3,2013-03-05 17:10:00,
2013-03-05 11:15:00,25.9,22.8,30.12,North,1,5.0,5.0,88,0.00,,,0.06,vanprod-2.3,2013-03-05 17:15:00,
2013-03-05 11:20:00,26.1,23.3,30.12,North,360,5.0,7.0,89,0.00,,,0.06,vanprod-2.3,2013-03-05 17:20:00,
2013-03-05 11:25:00,26.2,23.4,30.12,NW,311,4.0,4.0,89,0.00,,,0.06,vanprod-2.3,2013-03-05 17:25:00,
2013-03-05 11:30:00,26.4,23.3,30.12,North,3,5.0,5.0,88,0.00,,,0.06,vanprod-2.3,2013-03-05 17:30:00,
2013-03-05 11:35:00,26.5,23.4,30.12,North,353,5.0,10.0,88,0.00,,,0.06,vanprod-2.3,2013-03-05 17:35:00,
2013-03-05 11:40:00,26.5,23.4,30.12,North,6,6.0,11.0,88,0.00,,,0.06,vanprod-2.3,2013-03-05 17:40:00,
2013-03-05 11:45:00,26.4,23.3,30.12,NNW,328,6.0,6.0,88,0.00,,,0.06,vanprod-2.3,2013-03-05 17:45:00,
2013-03-05 11:50:00,26.7,23.6,30.12,North,349,4.0,4.0,88,0.00,,,0.06,vanprod-2.3,2013-03-05 17:50:00,
2013-03-05 11:55:00,26.5,23.2,30.12,North,9,8.0,13.0,87,0.00,,,0.06,vanprod-2.3,2013-03-05 17:55:00,
2013-03-05 12:00:00,26.5,23.2,30.12,NNW,347,7.0,11.0,87,0.00,,,0.06,vanprod-2.3,2013-03-05 18:00:00,
2013-03-05 12:05:00,26.8,23.2,30.12,NNW,337,7.0,17.0,86,0.00,,,0.06,vanprod-2.3,2013-03-05 18:05:00,
2013-03-05 12:10:00,26.5,22.6,30.12,North,354,9.0,10.0,85,0.00,,,0.06,vanprod-2.3,2013-03-05 18:10:00,
2013-03-05 12:15:00,26.8,22.6,30.13,North,353,7.0,10.0,84,0.00,,,0.06,vanprod-2.3,2013-03-05 18:15:00,
2013-03-05 12:20:00,27.0,22.5,30.13,North,2,7.0,7.0,83,0.00,,,0.06,vanprod-2.3,2013-03-05 18:20:00,
2013-03-05 12:25:00,27.1,22.9,30.13,North,360,13.0,15.0,84,0.00,,,0.06,vanprod-2.3,2013-03-05 18:25:00,
2013-03-05 12:30:00,27.1,22.9,30.13,NNW,327,5.0,12.0,84,0.00,,,0.06,vanprod-2.3,2013-03-05 18:30:00,
2013-03-05 12:35:00,26.8,22.6,30.14,North,350,4.0,4.0,84,0.00,,,0.06,vanprod-2.3,2013-03-05 18:35:00,
2013-03-05 12:40:00,27.0,22.5,30.14,NNW,347,8.0,17.0,83,0.00,,,0.06,vanprod-2.3,2013-03-05 18:40:00,
2013-03-05 12:45:00,27.1,22.6,30.14,NNW,337,6.0,6.0,83,0.00,,,0.06,vanprod-2.3,2013-03-05 18:45:00,
2013-03-05 12:50:00,27.9,23.4,30.14,NNW,344,4.0,4.0,83,0.00,,,0.06,vanprod-2.3,2013-03-05 18:50:00,
2013-03-05 12:55:00,27.9,23.1,30.14,NW,319,7.0,8.0,82,0.00,,,0.06,vanprod-2.3,2013-03-05 18:55:00,
2013-03-05 13:00:00,27.6,22.8,30.14,North,356,4.0,4.0,82,0.00,,,0.06,vanprod-2.3,2013-03-05 19:00:00,
2013-03-05 13:05:00,27.1,22.3,30.14,NNW,329,7.0,11.0,82,0.00,,,0.06,vanprod-2.3,2013-03-05 19:05:00,
2013-03-05 13:10:00,26.8,22.3,30.15,NNW,334,4.0,7.0,83,0.00,,,0.06,vanprod-2.3,2013-03-05 19:10:00,
2013-03-05 13:15:00,26.7,22.2,30.15,NW,315,5.0,5.0,83,0.00,,,0.06,vanprod-2.3,2013-03-05 19:15:00,
2013-03-05 13:20:00,26.5,22.3,30.16,NW,315,7.0,10.0,84,0.00,,,0.06,vanprod-2.3,2013-03-05 19:20:00,
2013-03-05 13:25:00,26.2,22.0,30.16,NNW,333,8.0,12.0,84,0.00,,,0.06,vanprod-2.3,2013-03-05 19:25:00,
2013-03-05 13:30:00,26.1,21.9,30.16,NNW,342,5.0,10.0,84,0.00,,,0.06,vanprod-2.3,2013-03-05 19:30:00,
2013-03-05 13:35:00,26.1,22.2,30.16,NNW,339,8.0,17.0,85,0.00,,,0.06,vanprod-2.3,2013-03-05 19:35:00,
2013-03-05 13:40:00,25.9,21.7,30.16,North,354,6.0,7.0,84,0.00,,,0.06,vanprod-2.3,2013-03-05 19:40:00,
2013-03-05 13:45:00,26.1,21.9,30.16,NNW,347,5.0,5.0,84,0.00,,,0.06,vanprod-2.3,2013-03-05 19:45:00,
2013-03-05 13:50:00,26.1,21.9,30.16,NW,323,6.0,10.0,84,0.00,,,0.06,vanprod-2.3,2013-03-05 19:50:00,
2013-03-05 13:55:00,26.1,21.9,30.17,NW,314,6.0,6.0,84,0.00,,,0.06,vanprod-2.3,2013-03-05 19:55:00,
2013-03-05 14:00:00,25.9,21.7,30.17,NNW,346,4.0,6.0,84,0.00,,,0.06,vanprod-2.3,2013-03-05 20:00:00,
2013-03-05 14:05:00,25.9,22.0,30.17,NNW,348,5.0,7.0,85,0.00,,,0.06,vanprod-2.3,2013-03-05 20:05:00,
2013-03-05 14:10:00,25.8,21.9,30.17,WNW,302,10.0,13.0,85,0.00,,,0.06,vanprod-2.3,2013-03-05 20:10:00,
2013-03-05 14:15:00,25.6,21.4,30.17,NW,309,8.0,9.0,84,0.00,,,0.06,vanprod-2.3,2013-03-05 20:15:00,
2013-03-05 14:20:00,25.5,21.3,30.17,North,351,11.0,11.0,84,0.00,,,0.06,vanprod-2.3,2013-03-05 20:20:00,
2013-03-05 14:25:00,25.3,21.4,30.17,NW,324,8.0,13.0,85,0.00,,,0.06,vanprod-2.3,2013-03-05 20:25:00,
2013-03-05 14:30:00,25.3,21.4,30.17,NNW,340,8.0,13.0,85,0.00,,,0.06,vanprod-2.3,2013-03-05 20:30:00,
2013-03-05 14:35:00,25.5,21.6,30.18,NNW,348,6.0,7.0,85,0.00,,,0.06,vanprod-2.3,2013-03-05 20:35:00,
2013-03-05 14:40:00,25.5,21.3,30.18,NNW,327,6.0,13.0,84,0.00,,,0.06,vanprod-2.3,2013-03-05 20:40:00,
2013-03-05 14:45:00,25.2,21.1,30.18,NNW,340,7.0,10.0,84,0.00,,,0.06,vanprod-2.3,2013-03-05 20:45:00,
2013-03-05 14:50:00,25.2,21.3,30.18,NNW,332,8.0,13.0,85,0.00,,,0.06,vanprod-2.3,2013-03-05 20:50:00,
2013-03-05 14:55:00,24.9,20.8,30.18,North,349,9.0,11.0,84,0.00,,,0.06,vanprod-2.3,2013-03-05 20:55:00,
2013-03-05 15:00:00,24.6,20.5,30.19,NW,321,9.0,14.0,84,0.00,,,0.06,vanprod-2.3,2013-03-05 21:00:00,
2013-03-05 15:05:00,24.6,21.0,30.19,North,354,4.0,5.0,86,0.00,,,0.06,vanprod-2.3,2013-03-05 21:05:00,
2013-03-05 15:10:00,24.9,21.3,30.19,NNW,339,5.0,8.0,86,0.00,,,0.06,vanprod-2.3,2013-03-05 21:10:00,
2013-03-05 15:15:00,24.8,20.9,30.19,NW,319,5.0,8.0,85,0.00,,,0.06,vanprod-2.3,2013-03-05 21:15:00,
2013-03-05 15:20:00,24.8,20.9,30.19,NNW,344,7.0,12.0,85,0.00,,,0.06,vanprod-2.3,2013-03-05 21:20:00,
2013-03-05 15:25:00,24.8,21.2,30.19,North,354,7.0,14.0,86,0.00,,,0.06,vanprod-2.3,2013-03-05 21:25:00,
2013-03-05 15:30:00,24.9,21.0,30.19,NNW,348,8.0,16.0,85,0.00,,,0.06,vanprod-2.3,2013-03-05 21:30:00,
2013-03-05 15:35:00,25.2,21.3,30.19,North,350,6.0,11.0,85,0.00,,,0.06,vanprod-2.3,2013-03-05 21:35:00,
2013-03-05 15:40:00,25.2,21.3,30.19,NNW,333,6.0,10.0,85,0.00,,,0.06,vanprod-2.3,2013-03-05 21:40:00,
2013-03-05 15:45:00,25.3,21.2,30.20,North,355,9.0,14.0,84,0.00,,,0.06,vanprod-2.3,2013-03-05 21:45:00,
2013-03-05 15:50:00,25.3,21.2,30.20,North,356,4.0,6.0,84,0.00,,,0.06,vanprod-2.3,2013-03-05 21:50:00,
2013-03-05 15:55:00,25.2,20.8,30.20,North,353,8.0,11.0,83,0.00,,,0.06,vanprod-2.3,2013-03-05 21:55:00,
2013-03-05 16:00:00,25.1,21.0,30.20,NNW,336,7.0,13.0,84,0.00,,,0.06,vanprod-2.3,2013-03-05 22:00:00,
2013-03-05 16:05:00,24.8,20.4,30.21,NW,315,9.0,16.0,83,0.00,,,0.06,vanprod-2.3,2013-03-05 22:05:00,
2013-03-05 16:10:00,24.5,20.4,30.21,NW,323,6.0,6.0,84,0.00,,,0.06,vanprod-2.3,2013-03-05 22:10:00,
2013-03-05 16:15:00,24.2,20.1,30.21,NW,318,8.0,13.0,84,0.00,,,0.06,vanprod-2.3,2013-03-05 22:15:00,
2013-03-05 16:20:00,24.2,20.1,30.22,NNW,341,6.0,16.0,84,0.00,,,0.06,vanprod-2.3,2013-03-05 22:20:00,
2013-03-05 16:25:00,23.9,19.8,30.22,NW,316,5.0,6.0,84,0.00,,,0.06,vanprod-2.3,2013-03-05 22:25:00,
2013-03-05 16:30:00,23.9,20.1,30.22,NW,324,8.0,9.0,85,0.00,,,0.06,vanprod-2.3,2013-03-05 22:30:00,
2013-03-05 16:35:00,23.6,19.8,30.23,NNW,342,6.0,7.0,85,0.00,,,0.06,vanprod-2.3,2013-03-05 22:35:00,
2013-03-05 16:40:00,23.4,19.6,30.23,NNW,342,6.0,8.0,85,0.00,,,0.06,vanprod-2.3,2013-03-05 22:40:00,
2013-03-05 16:45:00,23.4,19.6,30.23,NNW,346,4.0,7.0,85,0.00,,,0.06,vanprod-2.3,2013-03-05 22:45:00,
2013-03-05 16:50:00,23.4,19.6,30.23,NW,317,6.0,11.0,85,0.00,,,0.06,vanprod-2.3,2013-03-05 22:50:00,
2013-03-05 16:55:00,23.3,19.5,30.24,NNW,342,5.0,7.0,85,0.00,,,0.06,vanprod-2.3,2013-03-05 22:55:00,
2013-03-05 17:00:00,23.1,19.3,30.24,NW,308,5.0,8.0,85,0.00,,,0.06,vanprod-2.3,2013-03-05 23:00:00,
2013-03-05 17:05:00,23.0,19.2,30.25,NW,311,7.0,12.0,85,0.00,,,0.06,vanprod-2.3,2013-03-05 23:05:00,
2013-03-05 17:10:00,22.8,19.0,30.25,NNW,345,6.0,12.0,85,0.00,,,0.06,vanprod-2.3,2013-03-05 23:10:00,
2013-03-05 17:15:00,22.8,19.0,30.25,WNW,301,3.0,4.0,85,0.00,,,0.06,vanprod-2.3,2013-03-05 23:15:00,
2013-03-05 17:20:00,22.7,18.9,30.25,NW,326,6.0,6.0,85,0.00,,,0.06,vanprod-2.3,2013-03-05 23:20:00,
2013-03-05 17:25:00,22.5,18.7,30.25,NW,321,8.0,13.0,85,0.00,,,0.06,vanprod-2.3,2013-03-05 23:25:00,
2013-03-05 17:30:00,22.4,18.6,30.25,NW,313,9.0,13.0,85,0.00,,,0.06,vanprod-2.3,2013-03-05 23:30:00,
2013-03-05 17:35:00,22.4,18.6,30.26,NW,315,9.0,11.0,85,0.00,,,0.06,vanprod-2.3,2013-03-05 23:35:00,
2013-03-05 17:40:00,22.2,18.4,30.26,NNW,341,7.0,11.0,85,0.00,,,0.06,vanprod-2.3,2013-03-05 23:40:00,
2013-03-05 17:45:00,22.2,18.4,30.26,NNW,346,8.0,13.0,85,0.00,,,0.06,vanprod-2.3,2013-03-05 23:45:00,
2013-03-05 17:50:00,22.0,18.5,30.26,NNW,339,5.0,5.0,86,0.00,,,0.06,vanprod-2.3,2013-03-05 23:50:00,
2013-03-05 17:55:00,21.9,18.4,30.26,NW,312,5.0,5.0,86,0.00,,,0.06,vanprod-2.3,2013-03-05 23:55:00,
2013-03-05 18:00:00,21.9,18.4,30.27,NNW,330,5.0,11.0,86,0.00,,,0.06,vanprod-2.3,2013-03-06 00:00:00,
2013-03-05 18:05:00,21.7,18.2,30.27,NNW,330,5.0,10.0,86,0.00,,,0.06,vanprod-2.3,2013-03-06 00:05:00,
2013-03-05 18:10:00,21.7,17.9,30.27,NW,326,5.0,8.0,85,0.00,,,0.06,vanprod-2.3,2013-03-06 00:10:00,
2013-03-05 18:15:00,21.6,17.8,30.27,NNW,335,5.0,8.0,85,0.00,,,0.06,vanprod-2.3,2013-03-06 00:15:00,
2013-03-05 18:20:00,21.4,17.6,30.27,North,354,9.0,9.0,85,0.00,,,0.06,vanprod-2.3,2013-03-06 00:20:00,
2013-03-05 18:25:00,21.3,17.5,30.27,NNW,346,5.0,5.0,85,0.00,,,0.06,vanprod-2.3,2013-03-06 00:25:00,
2013-03-05 18:30:00,21.1,17.6,30.28,NNW,333,5.0,7.0,86,0.00,,,0.06,vanprod-2.3,2013-03-06 00:30:00,
2013-03-05 18:35:00,21.1,17.6,30.28,NNW,342,3.0,6.0,86,0.00,,,0.06,vanprod-2.3,2013-03-06 00:35:00,
2013-03-05 18:40:00,20.9,17.4,30.28,North,356,3.0,12.0,86,0.00,,,0.06,vanprod-2.3,2013-03-06 00:40:00,
2013-03-05 18:45:00,20.8,17.3,30.28,NW,320,5.0,6.0,86,0.00,,,0.06,vanprod-2.3,2013-03-06 00:45:00,
2013-03-05 18:50:00,20.6,17.1,30.28,North,1,5.0,7.0,86,0.00,,,0.06,vanprod-2.3,2013-03-06 00:50:00,
2013-03-05 18:55:00,20.5,17.0,30.28,NNW,334,4.0,10.0,86,0.00,,,0.06,vanprod-2.3,2013-03-06 00:55:00,
2013-03-05 19:00:00,20.3,16.8,30.28,NNW,336,5.0,8.0,86,0.00,,,0.06,vanprod-2.3,2013-03-06 01:00:00,
2013-03-05 19:05:00,20.0,16.2,30.28,NW,319,4.0,6.0,85,0.00,,,0.06,vanprod-2.3,2013-03-06 01:05:00,
2013-03-05 19:10:00,19.7,15.9,30.29,NNW,333,4.0,6.0,85,0.00,,,0.06,vanprod-2.3,2013-03-06 01:10:00,
2013-03-05 19:15:00,19.4,15.6,30.29,NNW,329,5.0,7.0,85,0.00,,,0.06,vanprod-2.3,2013-03-06 01:15:00,
2013-03-05 19:20:00,19.2,15.7,30.29,NNW,337,6.0,6.0,86,0.00,,,0.06,vanprod-2.3,2013-03-06 01:20:00,
2013-03-05 19:25:00,19.0,15.5,30.29,NNW,329,6.0,10.0,86,0.00,,,0.06,vanprod-2.3,2013-03-06 01:25:00,
2013-03-05 19:30:00,19.0,15.5,30.29,WNW,299,5.0,7.0,86,0.00,,,0.06,vanprod-2.3,2013-03-06 01:30:00,
2013-03-05 19:35:00,18.9,15.4,30.29,NNW,346,6.0,7.0,86,0.00,,,0.06,vanprod-2.3,2013-03-06 01:35:00,
2013-03-05 19:40:00,18.9,15.4,30.30,NNW,343,3.0,3.0,86,0.00,,,0.06,vanprod-2.3,2013-03-06 01:40:00,
2013-03-05 19:45:00,18.9,15.4,30.30,WNW,303,6.0,7.0,86,0.00,,,0.06,vanprod-2.3,2013-03-06 01:45:00,
2013-03-05 19:50:00,18.9,15.4,30.30,WNW,299,5.0,11.0,86,0.00,,,0.06,vanprod-2.3,2013-03-06 01:50:00,
2013-03-05 19:55:00,18.9,15.4,30.30,NW,304,4.0,4.0,86,0.00,,,0.06,vanprod-2.3,2013-03-06 01:55:00,
2013-03-05 20:00:00,18.7,15.2,30.30,NW,320,5.0,10.0,86,0.00,,,0.06,vanprod-2.3,2013-03-06 02:00:00,
2013-03-05 20:05:00,18.7,15.2,30.31,NNW,348,5.0,12.0,86,0.00,,,0.06,vanprod-2.3,2013-03-06 02:05:00,
2013-03-05 20:10:00,18.9,15.4,30.31,NNW,346,4.0,5.0,86,0.00,,,0.06,vanprod-2.3,2013-03-06 02:10:00,
2013-03-05 20:15:00,18.7,15.2,30.31,North,358,3.0,7.0,86,0.00,,,0.06,vanprod-2.3,2013-03-06 02:15:00,
2013-03-05 20:20:00,18.7,15.2,30.31,NNW,346,6.0,11.0,86,0.00,,,0.06,vanprod-2.3,2013-03-06 02:20:00,
2013-03-05 20:25:00,18.7,15.2,30.31,NNW,348,6.0,8.0,86,0.00,,,0.06,vanprod-2.3,2013-03-06 02:25:00,
2013-03-05 20:30:00,18.7,15.2,30.31,NNW,339,4.0,6.0,86,0.00,,,0.06,vanprod-2.3,2013-03-06 02:30:00,
2013-03-05 20:35:00,18.7,15.2,30.30,NNW,345,5.0,10.0,86,0.00,,,0.06,vanprod-2.3,2013-03-06 02:35:00,
2013-03-05 20:40:00,18.6,15.1,30.30,NNW,333,4.0,5.0,86,0.00,,,0.06,vanprod-2.3,2013-03-06 02:40:00,
2013-03-05 20:45:00,18.7,15.2,30.30,NNW,345,3.0,5.0,86,0.00,,,0.06,vanprod-2.3,2013-03-06 02:45:00,
2013-03-05 20:50:00,18.7,15.2,30.30,NW,312,2.0,3.0,86,0.00,,,0.06,vanprod-2.3,2013-03-06 02:50:00,
2013-03-05 20:55:00,18.6,15.1,30.30,NW,312,4.0,7.0,86,0.00,,,0.06,vanprod-2.3,2013-03-06 02:55:00,
2013-03-05 21:00:00,18.4,14.9,30.30,NW,312,3.0,5.0,86,0.00,,,0.06,vanprod-2.3,2013-03-06 03:00:00,
2013-03-05 21:05:00,18.3,14.8,30.30,NNW,337,1.0,1.0,86,0.00,,,0.06,vanprod-2.3,2013-03-06 03:05:00,
2013-03-05 21:10:00,18.3,14.8,30.30,WNW,291,4.0,8.0,86,0.00,,,0.06,vanprod-2.3,2013-03-06 03:10:00,
2013-03-05 21:15:00,18.1,14.6,30.31,WNW,292,2.0,3.0,86,0.00,,,0.06,vanprod-2.3,2013-03-06 03:15:00,
2013-03-05 21:20:00,18.1,14.6,30.31,WNW,302,3.0,6.0,86,0.00,,,0.06,vanprod-2.3,2013-03-06 03:20:00,
2013-03-05 21:25:00,17.9,14.4,30.31,NW,320,2.0,2.0,86,0.00,,,0.06,vanprod-2.3,2013-03-06 03:25:00,
2013-03-05 21:30:00,17.9,14.4,30.32,WNW,299,4.0,4.0,86,0.00,,,0.06,vanprod-2.3,2013-03-06 03:30:00,
2013-03-05 21:35:00,17.8,14.3,30.32,WNW,301,2.0,2.0,86,0.00,,,0.06,vanprod-2.3,2013-03-06 03:35:00,
2013-03-05 21:40:00,17.6,14.1,30.33,WNW,302,1.0,1.0,86,0.00,,,0.06,vanprod-2.3,2013-03-06 03:40:00,
2013-03-05 21:45:00,17.5,14.0,30.33,NW,323,3.0,3.0,86,0.00,,,0.06,vanprod-2.3,2013-03-06 03:45:00,
2013-03-05 21:50:00,17.5,14.0,30.33,NW,313,3.0,6.0,86,0.00,,,0.06,vanprod-2.3,2013-03-06 03:50:00,
2013-03-05 21:55:00,17.3,13.8,30.33,NW,310,2.0,7.0,86,0.00,,,0.06,vanprod-2.3,2013-03-06 03:55:00,
2013-03-05 22:00:00,17.3,14.1,30.33,WNW,299,2.0,2.0,87,0.00,,,0.06,vanprod-2.3,2013-03-06 04:00:00,
2013-03-05 22:05:00,17.3,14.1,30.33,NNW,334,2.0,7.0,87,0.00,,,0.06,vanprod-2.3,2013-03-06 04:05:00,
2013-03-05 22:10:00,17.3,14.1,30.33,NW,312,2.0,3.0,87,0.00,,,0.06,vanprod-2.3,2013-03-06 04:10:00,
2013-03-05 22:15:00,17.3,14.1,30.33,NW,322,2.0,6.0,87,0.00,,,0.06,vanprod-2.3,2013-03-06 04:15:00,
2013-03-05 22:20:00,17.3,14.1,30.33,NNW,346,1.0,3.0,87,0.00,,,0.06,vanprod-2.3,2013-03-06 04:20:00,
2013-03-05 22:25:00,17.6,14.4,30.33,NNW,338,3.0,6.0,87,0.00,,,0.06,vanprod-2.3,2013-03-06 04:25:00,
2013-03-05 22:30:00,17.9,14.7,30.33,North,349,4.0,5.0,87,0.00,,,0.06,vanprod-2.3,2013-03-06 04:30:00,
2013-03-05 22:35:00,18.4,15.2,30.33,NNW,330,4.0,4.0,87,0.00,,,0.06,vanprod-2.3,2013-03-06 04:35:00,
2013-03-05 22:40:00,18.7,15.5,30.33,NNW,342,4.0,11.0,87,0.00,,,0.06,vanprod-2.3,2013-03-06 04:40:00,
2013-03-05 22:45:00,18.9,15.7,30.33,NNW,334,5.0,5.0,87,0.00,,,0.06,vanprod-2.3,2013-03-06 04:45:00,
2013-03-05 22:50:00,18.9,15.7,30.33,NW,306,4.0,4.0,87,0.00,,,0.06,vanprod-2.3,2013-03-06 04:50:00,
2013-03-05 22:55:00,18.9,15.4,30.33,North,354,3.0,8.0,86,0.00,,,0.06,vanprod-2.3,2013-03-06 04:55:00,
2013-03-05 23:00:00,19.0,15.5,30.34,North,354,4.0,7.0,86,0.00,,,0.06,vanprod-2.3,2013-03-06 05:00:00,
2013-03-05 23:05:00,19.2,15.7,30.34,North,356,4.0,6.0,86,0.00,,,0.06,vanprod-2.3,2013-03-06 05:05:00,
2013-03-05 23:10:00,19.0,15.5,30.34,NW,312,4.0,7.0,86,0.00,,,0.06,vanprod-2.3,2013-03-06 05:10:00,
2013-03-05 23:15:00,19.2,15.7,30.34,NNW,329,2.0,5.0,86,0.00,,,0.06,vanprod-2.3,2013-03-06 05:15:00,
2013-03-05 23:20:00,19.2,15.7,30.34,WNW,294,3.0,7.0,86,0.00,,,0.06,vanprod-2.3,2013-03-06 05:20:00,
2013-03-05 23:25:00,19.2,15.7,30.34,WNW,298,5.0,5.0,86,0.00,,,0.06,vanprod-2.3,2013-03-06 05:25:00,
2013-03-05 23:30:00,19.2,15.7,30.34,North,357,3.0,3.0,86,0.00,,,0.06,vanprod-2.3,2013-03-06 05:30:00,
2013-03-05 23:35:00,19.2,15.7,30.34,NW,317,3.0,3.0,86,0.00,,,0.06,vanprod-2.3,2013-03-06 05:35:00,
2013-03-05 23:40:00,19.2,15.7,30.34,NW,324,3.0,3.0,86,0.00,,,0.06,vanprod-2.3,2013-03-06 05:40:00,
2013-03-05 23:45:00,19.4,15.9,30.34,NW,326,2.0,2.0,86,0.00,,,0.06,vanprod-2.3,2013-03-06 05:45:00,
2013-03-05 23:50:00,19.4,15.9,30.34,NNW,339,4.0,5.0,86,0.00,,,0.06,vanprod-2.3,2013-03-06 05:50:00,
2013-03-05 23:55:00,19.4,15.9,30.34,NNW,333,2.0,2.0,86,0.00,,,0.06,vanprod-2.3,2013-03-06 05:55:00,